Buritis, Brazil
Current Conditions -  °F | °C
As of 6:00 PM on Wednesday 17 Dec 2014 (Local Time) from SBBR Reporting Station
Scattered Clouds Scattered Clouds  
Wind Chill: 72°   Ceiling: Unl
Heat Index: 72°   Visibility: 6mi
Dew Point: 68°   Wind: 7mph
Humidity: 88%   Direction: 270°W
Pressure: 29.94"   Gusts: NA
Location:  15.62°S, 46.42°W
Report Text: SBBR 172000Z 27006KT 9999 SCT030 FEW040TCU SCT080 22/20 Q1014
Loading
Personal Weather Stations






























Interactive Weather Map New forecast layout! Learn more

10-Day Weather Forecast

Advertisements
Track Severe Weather on mobile